Time;durP1;ratioP1;P1;durP2;ratioP2;P2;SDS_P1;SDS_P2;PMS_P1;PMS_P2;Temp;Humidity;BMP_temperature;BMP_pressure;BME280_temperature;BME280_humidity;BME280_pressure;Samples;Min_cycle;Max_cycle;Signal;HPM_P1;HPM_P2
2022/07/02 00:00:24;;;;;;;;;;;;;;;23.32;48.31;100071.44;2050180;28;19918;-48
2022/07/02 00:01:25;;;;;;;;;;;;;;;23.31;48.22;100081.59;2049713;28;20102;-48
2022/07/02 00:02:25;;;;;;;;;;;;;;;23.32;48.23;100071.44;2060645;28;19964;-46
2022/07/02 00:03:33;;;;;;;;;;;;;;;23.31;48.23;100072.50;2058187;28;19926;-45
2022/07/02 00:04:34;;;;;;;;;;;;;;;23.31;48.27;100072.50;2058516;28;19909;-47
2022/07/02 00:05:38;;;;;;;;;;;;;;;23.31;48.23;100064.25;2059163;28;19972;-45
2022/07/02 00:06:40;;;;;;;;;;;;;;;23.31;48.28;100072.50;2057042;28;20210;-46
2022/07/02 00:07:40;;;;;;;;;;;;;;;23.30;48.43;100071.66;2060017;28;20090;-45
2022/07/02 00:08:42;;;;;;;;;;;;;;;23.30;48.32;100073.56;2059605;28;20260;-45
2022/07/02 00:09:42;;;;;;;;;;;;;;;23.30;48.23;100074.41;2058619;28;20008;-46
2022/07/02 00:10:42;;;;;;;;;;;;;;;23.30;48.35;100077.16;2059134;28;19936;-45
2022/07/02 00:11:43;;;;;;;;;;;;;;;23.30;48.30;100066.16;2049618;28;20183;-46
2022/07/02 00:12:43;;;;;;;;;;;;;;;23.30;48.53;100073.56;2051630;28;19917;-46
2022/07/02 00:13:43;;;;;;;;;;;;;;;23.29;48.35;100069.06;2058397;28;20092;-45
2022/07/02 00:14:44;;;;;;;;;;;;;;;23.30;48.37;100073.56;2060195;28;20157;-45
2022/07/02 00:15:45;;;;;;;;;;;;;;;23.29;48.48;100067.16;2059165;28;20445;-45
2022/07/02 00:16:45;;;;;;;;;;;;;;;23.29;48.50;100077.31;2054972;28;19942;-46
2022/07/02 00:17:46;;;;;;;;;;;;;;;23.29;48.36;100080.06;2060567;28;19918;-45
2022/07/02 00:18:46;;;;;;;;;;;;;;;23.29;48.54;100074.56;2051768;28;19925;-45
2022/07/02 00:19:46;;;;;;;;;;;;;;;23.29;48.48;100082.81;2051368;28;19965;-45
2022/07/02 00:20:47;;;;;;;;;;;;;;;23.28;48.56;100081.97;2060553;28;20268;-45
2022/07/02 00:21:48;;;;;;;;;;;;;;;23.28;48.42;100083.88;2057484;28;20068;-45
2022/07/02 00:22:50;;;;;;;;;;;;;;;23.28;48.61;100086.63;2062364;28;19918;-47
2022/07/02 00:23:51;;;;;;;;;;;;;;;23.28;48.55;100086.63;2053802;28;20382;-45
2022/07/02 00:24:51;;;;;;;;;;;;;;;23.28;48.62;100089.38;2053313;28;19918;-47
2022/07/02 00:25:57;;;;;;;;;;;;;;;23.28;48.61;100086.63;2059331;28;20027;-46
2022/07/02 00:26:59;;;;;;;;;;;;;;;23.27;48.67;100085.75;2060724;28;20449;-46
2022/07/02 00:28:00;;;;;;;;;;;;;;;23.28;48.75;100083.88;2059782;28;19987;-45
2022/07/02 00:29:05;;;;;;;;;;;;;;;23.27;48.57;100080.28;2059741;28;19967;-46
2022/07/02 00:30:06;;;;;;;;;;;;;;;23.27;48.62;100079.38;2062055;28;20012;-45
2022/07/02 00:31:06;;;;;;;;;;;;;;;23.26;48.63;100078.53;2059835;28;20267;-44
2022/07/02 00:32:07;;;;;;;;;;;;;;;23.27;48.53;100083.00;2059456;28;19910;-46
2022/07/02 00:33:09;;;;;;;;;;;;;;;23.27;48.63;100087.63;2063230;28;20086;-46
2022/07/02 00:34:09;;;;;;;;;;;;;;;23.26;48.65;100081.28;2060651;28;19910;-45
2022/07/02 00:35:13;;;;;;;;;;;;;;;23.26;48.70;100081.28;2058870;28;20649;-46
2022/07/02 00:36:21;;;;;;;;;;;;;;;23.26;48.64;100084.03;2061417;28;19914;-48
2022/07/02 00:37:22;;;;;;;;;;;;;;;23.27;48.63;100080.28;2059857;28;20122;-45
2022/07/02 00:38:23;;;;;;;;;;;;;;;23.27;48.58;100087.63;2060719;28;19989;-47
2022/07/02 00:39:23;;;;;;;;;;;;;;;23.26;48.71;100086.78;2061297;28;19917;-44
2022/07/02 00:40:25;;;;;;;;;;;;;;;23.27;48.56;100079.38;2059843;28;19968;-46
2022/07/02 00:41:26;;;;;;;;;;;;;;;23.27;48.63;100084.88;2061171;28;19921;-47
2022/07/02 00:42:27;;;;;;;;;;;;;;;23.26;48.61;100084.03;2056068;28;19913;-48
2022/07/02 00:43:28;;;;;;;;;;;;;;;23.26;48.56;100077.69;2059603;28;20035;-48
2022/07/02 00:44:29;;;;;;;;;;;;;;;23.27;48.64;100068.38;2062654;28;19921;-47
2022/07/02 00:45:29;;;;;;;;;;;;;;;23.26;48.58;100072.19;2056014;28;19968;-47
2022/07/02 00:46:31;;;;;;;;;;;;;;;23.26;48.76;100072.19;2059889;28;19952;-48
2022/07/02 00:47:32;;;;;;;;;;;;;;;23.26;48.81;100072.19;2056752;28;19921;-45
2022/07/02 00:48:33;;;;;;;;;;;;;;;23.26;48.73;100077.69;2058978;28;19924;-45
2022/07/02 00:49:34;;;;;;;;;;;;;;;23.25;48.70;100082.34;2055138;28;19958;-45
2022/07/02 00:50:35;;;;;;;;;;;;;;;23.26;48.80;100083.19;2060724;28;19917;-46
2022/07/02 00:51:35;;;;;;;;;;;;;;;23.26;48.71;100083.19;2061028;28;19920;-46
2022/07/02 00:52:35;;;;;;;;;;;;;;;23.26;48.70;100077.69;2059929;28;19913;-46
2022/07/02 00:53:36;;;;;;;;;;;;;;;23.25;48.66;100073.19;2060533;28;20195;-46
2022/07/02 00:54:36;;;;;;;;;;;;;;;23.25;48.70;100070.44;2059758;28;20392;-45
2022/07/02 00:55:36;;;;;;;;;;;;;;;23.25;48.71;100070.44;2060899;28;19944;-46
2022/07/02 00:56:37;;;;;;;;;;;;;;;23.25;48.82;100070.44;2060957;28;19917;-45
2022/07/02 00:57:37;;;;;;;;;;;;;;;23.24;48.77;100077.00;2061499;28;20418;-45
2022/07/02 00:58:38;;;;;;;;;;;;;;;23.24;48.83;100077.84;2059405;28;19925;-45
2022/07/02 00:59:38;;;;;;;;;;;;;;;23.24;48.88;100083.34;2060504;28;19913;-45
2022/07/02 01:00:38;;;;;;;;;;;;;;;23.24;48.89;100074.25;2060134;28;20330;-46
2022/07/02 01:01:39;;;;;;;;;;;;;;;23.24;48.89;100079.75;2060803;28;20052;-45
2022/07/02 01:02:41;;;;;;;;;;;;;;;23.23;48.90;100073.41;2059641;28;20290;-46
2022/07/02 01:03:42;;;;;;;;;;;;;;;23.23;48.82;100067.91;2059170;28;19921;-45
2022/07/02 01:04:43;;;;;;;;;;;;;;;23.23;48.81;100078.91;2064101;28;19940;-46
2022/07/02 01:05:45;;;;;;;;;;;;;;;23.24;49.00;100079.75;2060765;28;20004;-45
2022/07/02 01:06:48;;;;;;;;;;;;;;;23.22;48.86;100066.16;2060407;28;19917;-46
2022/07/02 01:10:31;;;;;;;;;;;;;;;23.22;48.83;100065.31;2059992;28;20326;-46
2022/07/02 01:11:33;;;;;;;;;;;;;;;23.21;49.02;100061.72;2055503;28;19944;-47
2022/07/02 01:12:34;;;;;;;;;;;;;;;23.23;48.86;100061.53;2051390;28;19924;-47
2022/07/02 01:13:34;;;;;;;;;;;;;;;23.21;49.00;100058.13;2059127;28;19921;-45
2022/07/02 01:14:34;;;;;;;;;;;;;;;23.22;48.94;100057.06;2062073;28;20047;-47
2022/07/02 01:15:36;;;;;;;;;;;;;;;23.23;48.93;100056.03;2054564;28;19922;-46
2022/07/02 01:16:36;;;;;;;;;;;;;;;23.22;48.83;100043.31;2053312;28;20226;-45
2022/07/02 01:17:37;;;;;;;;;;;;;;;23.21;48.99;100036.97;2054262;28;19918;-45
2022/07/02 01:18:37;;;;;;;;;;;;;;;23.21;49.03;100045.22;2055601;28;20098;-46
2022/07/02 01:19:38;;;;;;;;;;;;;;;23.21;48.96;100041.63;2057452;28;21111;-45
2022/07/02 01:20:38;;;;;;;;;;;;;;;23.21;48.94;100047.13;2060381;28;20295;-45
2022/07/02 01:21:59;;;;;;;;;;;;;;;23.21;48.97;100041.63;2060096;28;19998;-45
2022/07/02 01:22:59;;;;;;;;;;;;;;;23.21;49.04;100045.22;2058508;28;19917;-46
2022/07/02 01:23:59;;;;;;;;;;;;;;;23.21;49.07;100047.97;2056675;28;19917;-46
2022/07/02 01:25:00;;;;;;;;;;;;;;;23.21;49.26;100045.22;2061213;28;20303;-49
2022/07/02 01:26:00;;;;;;;;;;;;;;;23.21;49.02;100045.22;2058405;28;20004;-46
2022/07/02 01:27:00;;;;;;;;;;;;;;;23.21;48.99;100038.88;2059066;28;19917;-44
2022/07/02 01:28:00;;;;;;;;;;;;;;;23.21;48.95;100038.88;2060304;28;20003;-45
2022/07/02 01:29:01;;;;;;;;;;;;;;;23.21;49.05;100041.63;2060831;28;19917;-45
2022/07/02 01:30:02;;;;;;;;;;;;;;;23.21;49.21;100036.13;2059160;28;19913;-45
2022/07/02 01:31:02;;;;;;;;;;;;;;;23.21;49.12;100038.88;2060073;28;19968;-45
2022/07/02 01:32:04;;;;;;;;;;;;;;;23.21;49.02;100041.63;2056805;28;19917;-45
2022/07/02 01:33:04;;;;;;;;;;;;;;;23.20;49.13;100034.38;2061387;28;20197;-46
2022/07/02 01:34:04;;;;;;;;;;;;;;;23.21;49.04;100041.63;2058833;28;19964;-45
2022/07/02 01:35:06;;;;;;;;;;;;;;;23.20;49.16;100046.25;2060962;28;20034;-45
2022/07/02 01:36:06;;;;;;;;;;;;;;;23.19;49.17;100041.78;2060598;28;19957;-44
2022/07/02 01:37:08;;;;;;;;;;;;;;;23.20;49.09;100037.13;2058774;28;19936;-45
2022/07/02 01:38:09;;;;;;;;;;;;;;;23.20;49.06;100039.88;2060939;28;20142;-45
2022/07/02 01:39:09;;;;;;;;;;;;;;;23.18;49.17;100042.81;2058608;28;19917;-45
2022/07/02 01:40:10;;;;;;;;;;;;;;;23.19;49.15;100038.19;2060691;28;20312;-46
2022/07/02 01:42:29;;;;;;;;;;;;;;;23.19;49.22;100046.44;2060193;28;19917;-45
2022/07/02 01:43:29;;;;;;;;;;;;;;;23.18;49.20;100039.22;2060807;28;19953;-45
2022/07/02 01:44:30;;;;;;;;;;;;;;;23.18;49.10;100042.81;2058466;28;19924;-45
2022/07/02 01:45:30;;;;;;;;;;;;;;;23.18;49.18;100036.47;2055941;28;20208;-46
2022/07/02 01:46:30;;;;;;;;;;;;;;;23.19;49.20;100032.69;2056468;28;19925;-45
2022/07/02 01:47:31;;;;;;;;;;;;;;;23.17;49.14;100029.25;2057383;28;19906;-45
2022/07/02 01:48:31;;;;;;;;;;;;;;;23.18;49.28;100025.47;2059642;28;19918;-45
2022/07/02 01:49:32;;;;;;;;;;;;;;;23.18;49.20;100025.47;2059614;28;19925;-47
2022/07/02 01:50:35;;;;;;;;;;;;;;;23.19;49.08;100021.69;2060868;28;19944;-45
2022/07/02 01:51:36;;;;;;;;;;;;;;;23.17;49.15;100024.59;2060150;28;20217;-48
2022/07/02 01:52:36;;;;;;;;;;;;;;;23.18;49.25;100025.47;2060164;28;19945;-48
2022/07/02 01:53:36;;;;;;;;;;;;;;;23.18;49.21;100019.97;2060680;28;19910;-46
2022/07/02 01:54:37;;;;;;;;;;;;;;;23.18;49.24;100014.47;2057954;28;20279;-46
2022/07/02 01:55:37;;;;;;;;;;;;;;;23.18;49.27;100020.84;2057417;28;19923;-45
2022/07/02 01:56:37;;;;;;;;;;;;;;;23.19;49.22;100016.19;2059540;28;19925;-44
2022/07/02 01:57:37;;;;;;;;;;;;;;;23.17;49.18;100013.59;2051035;28;19921;-45
2022/07/02 01:58:38;;;;;;;;;;;;;;;23.18;49.34;100019.97;2052290;28;20540;-48
2022/07/02 01:59:38;;;;;;;;;;;;;;;23.17;49.34;100010.00;2055849;28;20217;-45
2022/07/02 02:00:38;;;;;;;;;;;;;;;23.18;49.33;100014.47;2057875;28;20161;-47
2022/07/02 02:01:39;;;;;;;;;;;;;;;23.17;49.26;100012.75;2054895;28;19918;-45
2022/07/02 02:02:40;;;;;;;;;;;;;;;23.17;49.33;100019.09;2058766;28;19909;-45
2022/07/02 02:03:41;;;;;;;;;;;;;;;23.17;49.27;100018.25;2061324;28;20696;-45
2022/07/02 02:04:41;;;;;;;;;;;;;;;23.17;49.38;100012.75;2056400;28;20160;-45
2022/07/02 02:05:41;;;;;;;;;;;;;;;23.17;49.38;100012.75;2060557;28;19917;-44
2022/07/02 02:06:42;;;;;;;;;;;;;;;23.17;49.22;100018.25;2057197;28;19983;-45
2022/07/02 02:07:42;;;;;;;;;;;;;;;23.17;49.38;100021.00;2060520;28;19925;-45
2022/07/02 02:08:43;;;;;;;;;;;;;;;23.18;49.39;100014.47;2059090;28;19978;-46
2022/07/02 02:09:43;;;;;;;;;;;;;;;23.17;49.41;100019.09;2059014;28;19967;-45
2022/07/02 02:10:43;;;;;;;;;;;;;;;23.17;49.43;100018.25;2061041;28;19909;-46
2022/07/02 02:11:43;;;;;;;;;;;;;;;23.17;49.37;100018.25;2055065;28;19976;-45
2022/07/02 02:12:44;;;;;;;;;;;;;;;23.16;49.34;100022.03;2054916;28;20250;-45
2022/07/02 02:13:44;;;;;;;;;;;;;;;23.16;49.39;100008.28;2060386;28;19967;-44
2022/07/02 02:14:44;;;;;;;;;;;;;;;23.15;49.45;100015.69;2059564;28;19953;-45
2022/07/02 02:15:45;;;;;;;;;;;;;;;23.16;49.39;100022.03;2060100;28;19983;-45
2022/07/02 02:16:45;;;;;;;;;;;;;;;23.16;49.37;100027.53;2059214;28;20414;-46
2022/07/02 02:17:45;;;;;;;;;;;;;;;23.16;49.39;100033.03;2059461;28;19932;-45
2022/07/02 02:18:47;;;;;;;;;;;;;;;23.16;49.32;100030.28;2060246;28;19918;-45
2022/07/02 02:19:47;;;;;;;;;;;;;;;23.15;49.41;100036.81;2058497;28;19918;-44
2022/07/02 02:20:47;;;;;;;;;;;;;;;23.15;49.38;100029.44;2052701;28;19922;-46
2022/07/02 02:21:48;;;;;;;;;;;;;;;23.14;49.40;100018.63;2054280;28;19917;-46
2022/07/02 02:22:48;;;;;;;;;;;;;;;23.14;49.46;100015.88;2050179;28;20306;-45
2022/07/02 02:23:48;;;;;;;;;;;;;;;23.15;49.36;100020.31;2053968;28;19913;-45
2022/07/02 02:24:48;;;;;;;;;;;;;;;23.14;49.42;100013.13;2060060;28;20124;-45
2022/07/02 02:25:49;;;;;;;;;;;;;;;23.15;49.42;100014.81;2058044;28;20327;-46
2022/07/02 02:26:49;;;;;;;;;;;;;;;23.14;49.32;100013.13;2061193;28;19954;-45
2022/07/02 02:27:50;;;;;;;;;;;;;;;23.15;49.47;100014.81;2058867;28;19917;-45
2022/07/02 02:28:50;;;;;;;;;;;;;;;23.13;49.41;100023.25;2061133;28;19917;-44
2022/07/02 02:29:50;;;;;;;;;;;;;;;23.14;49.43;100024.13;2059017;28;19932;-45
2022/07/02 02:30:51;;;;;;;;;;;;;;;23.14;49.43;100024.13;2060051;28;19923;-46
2022/07/02 02:31:51;;;;;;;;;;;;;;;23.14;49.54;100024.13;2064266;28;20532;-45
2022/07/02 02:32:52;;;;;;;;;;;;;;;23.13;49.50;100027.88;2060931;28;20118;-46
2022/07/02 02:33:52;;;;;;;;;;;;;;;23.14;49.65;100027.72;2059409;28;19957;-45
2022/07/02 02:34:52;;;;;;;;;;;;;;;23.14;49.49;100026.88;2051702;28;19933;-46
2022/07/02 02:35:52;;;;;;;;;;;;;;;23.15;49.54;100025.81;2047275;28;19922;-45
2022/07/02 02:36:53;;;;;;;;;;;;;;;23.14;49.53;100029.59;2052447;28;20303;-45
2022/07/02 02:37:53;;;;;;;;;;;;;;;23.14;49.54;100029.59;2060499;28;19918;-45
2022/07/02 02:38:53;;;;;;;;;;;;;;;23.13;49.56;100025.13;2059680;28;20051;-45
2022/07/02 02:39:53;;;;;;;;;;;;;;;23.14;49.41;100024.13;2060255;28;19956;-45
2022/07/02 02:40:54;;;;;;;;;;;;;;;23.13;49.56;100023.25;2057079;28;19913;-46
2022/07/02 02:41:54;;;;;;;;;;;;;;;23.14;49.49;100024.13;2054620;28;19971;-45
2022/07/02 02:42:54;;;;;;;;;;;;;;;23.14;49.61;100018.63;2054637;28;19910;-45
2022/07/02 02:43:55;;;;;;;;;;;;;;;23.13;49.67;100016.88;2053783;28;19925;-46
2022/07/02 02:44:55;;;;;;;;;;;;;;;23.13;49.51;100006.75;2060208;28;20345;-45
2022/07/02 02:45:55;;;;;;;;;;;;;;;23.13;49.53;100016.88;2059233;28;20036;-45
2022/07/02 02:46:55;;;;;;;;;;;;;;;23.13;49.56;100011.38;2060464;28;19910;-44
2022/07/02 02:47:56;;;;;;;;;;;;;;;23.11;49.65;100009.69;2059433;28;20017;-45
2022/07/02 02:48:56;;;;;;;;;;;;;;;23.13;49.52;100016.88;2058011;28;19949;-45
2022/07/02 02:49:56;;;;;;;;;;;;;;;23.13;49.47;100008.63;2059129;28;19917;-46
2022/07/02 02:50:57;;;;;;;;;;;;;;;23.11;49.56;100015.19;2056557;28;19910;-45
2022/07/02 02:51:58;;;;;;;;;;;;;;;23.13;49.56;100011.38;2058872;28;19917;-46
2022/07/02 02:52:58;;;;;;;;;;;;;;;23.12;49.68;100007.78;2053229;28;20413;-45
2022/07/02 02:53:59;;;;;;;;;;;;;;;23.11;49.52;100009.69;2051268;28;20379;-46
2022/07/02 02:55:00;;;;;;;;;;;;;;;23.11;49.56;100009.69;2056929;28;19996;-45
2022/07/02 02:56:01;;;;;;;;;;;;;;;23.11;49.58;100014.31;2058080;28;20420;-45
2022/07/02 02:57:01;;;;;;;;;;;;;;;23.10;49.52;100002.47;2060502;28;19991;-46
2022/07/02 02:58:02;;;;;;;;;;;;;;;23.10;49.57;100002.47;2053141;28;19921;-45
2022/07/02 02:59:02;;;;;;;;;;;;;;;23.10;49.59;99999.72;2059994;28;19917;-47
2022/07/02 03:00:03;;;;;;;;;;;;;;;23.09;49.50;100006.25;2052752;28;19981;-44
2022/07/02 03:01:04;;;;;;;;;;;;;;;23.09;49.63;99998.00;2054670;28;19975;-45
2022/07/02 03:02:04;;;;;;;;;;;;;;;23.09;49.46;100003.50;2053106;28;19989;-45
2022/07/02 03:03:05;;;;;;;;;;;;;;;23.09;49.62;99999.91;2055644;28;20153;-45
2022/07/02 03:04:05;;;;;;;;;;;;;;;23.10;49.68;99999.72;2055847;28;19921;-45
2022/07/02 03:05:05;;;;;;;;;;;;;;;23.09;49.50;100000.75;2059339;28;19916;-45
2022/07/02 03:06:06;;;;;;;;;;;;;;;23.09;49.57;100003.50;2058163;28;19917;-45
2022/07/02 03:07:06;;;;;;;;;;;;;;;23.09;49.55;100000.75;2060190;28;20388;-46
2022/07/02 03:08:06;;;;;;;;;;;;;;;23.10;49.62;100007.09;2059455;28;19943;-46
2022/07/02 03:09:07;;;;;;;;;;;;;;;23.08;49.53;100010.03;2059835;28;20048;-46
2022/07/02 03:10:07;;;;;;;;;;;;;;;23.09;49.58;100006.25;2059870;28;19924;-46
2022/07/02 03:11:08;;;;;;;;;;;;;;;23.08;49.55;100004.53;2057136;28;20614;-45
2022/07/02 03:12:08;;;;;;;;;;;;;;;23.08;49.67;100010.03;2057223;28;20398;-45
2022/07/02 03:13:09;;;;;;;;;;;;;;;23.09;49.78;99999.91;2055273;28;19928;-46
2022/07/02 03:14:09;;;;;;;;;;;;;;;23.08;49.70;99999.03;2059593;28;19925;-45
2022/07/02 03:15:09;;;;;;;;;;;;;;;23.09;49.76;100005.41;2060410;28;20020;-46
2022/07/02 03:16:10;;;;;;;;;;;;;;;23.09;49.78;100006.25;2058900;28;20017;-47
2022/07/02 03:17:10;;;;;;;;;;;;;;;23.09;49.66;100009.00;2050489;28;20737;-45
2022/07/02 03:18:10;;;;;;;;;;;;;;;23.09;49.68;100008.16;2052982;28;19960;-46
2022/07/02 03:19:11;;;;;;;;;;;;;;;23.09;49.63;100011.75;2064575;28;19964;-46
2022/07/02 03:20:11;;;;;;;;;;;;;;;23.09;49.80;100003.50;2059895;28;19917;-46
2022/07/02 03:21:12;;;;;;;;;;;;;;;23.09;49.81;100010.91;2058462;28;19933;-52
2022/07/02 03:22:12;;;;;;;;;;;;;;;23.08;49.76;100012.78;2060588;28;19910;-46
2022/07/02 03:23:12;;;;;;;;;;;;;;;23.09;49.70;100010.91;2059521;28;20304;-45
2022/07/02 03:24:13;;;;;;;;;;;;;;;23.08;49.85;100004.53;2059055;28;20298;-46
2022/07/02 03:25:13;;;;;;;;;;;;;;;23.09;49.76;100008.16;2061337;28;19910;-46
2022/07/02 03:26:13;;;;;;;;;;;;;;;23.09;49.77;100002.66;2063377;28;19924;-45
2022/07/02 03:27:13;;;;;;;;;;;;;;;23.07;49.72;100008.31;2060601;28;19917;-45
2022/07/02 03:28:14;;;;;;;;;;;;;;;23.08;49.86;99998.19;2059417;28;19917;-46
2022/07/02 03:29:14;;;;;;;;;;;;;;;23.08;49.92;100007.28;2058953;28;19913;-49
2022/07/02 03:30:14;;;;;;;;;;;;;;;23.07;49.77;100002.81;2059612;28;19922;-46
2022/07/02 03:31:15;;;;;;;;;;;;;;;23.07;49.90;100007.47;2054108;28;19971;-46
2022/07/02 03:32:16;;;;;;;;;;;;;;;23.07;49.75;100002.81;2052619;28;19971;-48
2022/07/02 03:33:16;;;;;;;;;;;;;;;23.06;49.80;100006.59;2052046;28;20271;-46
2022/07/02 03:34:16;;;;;;;;;;;;;;;23.06;49.86;100009.34;2051369;28;19925;-47
2022/07/02 03:35:17;;;;;;;;;;;;;;;23.06;49.72;100014.84;2059873;28;19917;-46
2022/07/02 03:36:17;;;;;;;;;;;;;;;23.07;49.76;100008.31;2055337;28;19983;-45
2022/07/02 03:37:19;;;;;;;;;;;;;;;23.06;49.79;100006.59;2060781;28;19910;-46
2022/07/02 03:38:20;;;;;;;;;;;;;;;23.06;49.90;100006.59;2064967;28;20007;-45
2022/07/02 03:39:20;;;;;;;;;;;;;;;23.05;49.76;99996.66;2062743;28;20000;-45
2022/07/02 03:40:20;;;;;;;;;;;;;;;23.05;49.85;99993.91;2060867;28;19909;-45
2022/07/02 03:41:21;;;;;;;;;;;;;;;23.04;49.84;100000.44;2059239;28;20243;-46
2022/07/02 03:42:21;;;;;;;;;;;;;;;23.06;49.83;99997.50;2059956;28;19925;-46
2022/07/02 03:43:21;;;;;;;;;;;;;;;23.05;49.71;100004.91;2063649;28;19960;-45
2022/07/02 03:44:22;;;;;;;;;;;;;;;23.04;49.84;100003.19;2058095;28;19945;-46
2022/07/02 03:45:22;;;;;;;;;;;;;;;23.05;49.86;100009.53;2052012;28;20191;-47
2022/07/02 03:46:22;;;;;;;;;;;;;;;23.05;49.70;100013.16;2058390;28;19953;-45
2022/07/02 03:47:23;;;;;;;;;;;;;;;23.05;49.83;100004.91;2058031;28;20480;-46
2022/07/02 03:48:23;;;;;;;;;;;;;;;23.05;49.83;100010.41;2051979;28;19992;-45
2022/07/02 03:49:23;;;;;;;;;;;;;;;23.04;49.86;100007.81;2054383;28;20404;-45
2022/07/02 03:50:23;;;;;;;;;;;;;;;23.05;50.01;100015.91;2053639;28;19925;-46
2022/07/02 03:51:24;;;;;;;;;;;;;;;23.06;49.78;100019.50;2060063;28;19917;-45
2022/07/02 03:52:24;;;;;;;;;;;;;;;23.04;49.81;100008.69;2060366;28;20259;-46
2022/07/02 03:53:24;;;;;;;;;;;;;;;23.06;49.81;100014.00;2061945;28;19925;-46
2022/07/02 03:54:25;;;;;;;;;;;;;;;23.05;49.83;100010.41;2062171;28;20262;-46
2022/07/02 03:55:25;;;;;;;;;;;;;;;23.04;49.84;100008.69;2062326;28;20342;-45
2022/07/02 03:56:25;;;;;;;;;;;;;;;23.05;49.89;100004.03;2052219;28;20168;-47
2022/07/02 03:57:26;;;;;;;;;;;;;;;23.05;49.97;100009.53;2056562;28;19963;-46
2022/07/02 03:58:26;;;;;;;;;;;;;;;23.04;49.97;100008.69;2062568;28;20091;-45
2022/07/02 03:59:26;;;;;;;;;;;;;;;23.04;49.93;100016.94;2060293;28;19917;-45
2022/07/02 04:00:26;;;;;;;;;;;;;;;23.05;49.85;100015.91;2066481;28;20342;-46
2022/07/02 04:01:27;;;;;;;;;;;;;;;23.04;49.86;100014.19;2053685;28;20250;-45
2022/07/02 04:02:27;;;;;;;;;;;;;;;23.04;50.02;100008.69;2054905;28;19917;-45
2022/07/02 04:03:27;;;;;;;;;;;;;;;23.05;49.92;100009.53;2058127;28;19924;-47
2022/07/02 04:04:28;;;;;;;;;;;;;;;23.04;49.92;100007.81;2062432;28;19922;-45
2022/07/02 04:05:28;;;;;;;;;;;;;;;23.03;50.10;100001.47;2061387;28;19917;-45
2022/07/02 04:06:28;;;;;;;;;;;;;;;23.03;50.12;100001.47;2061405;28;20010;-46
2022/07/02 04:07:29;;;;;;;;;;;;;;;23.03;50.19;100012.47;2058980;28;19959;-46
2022/07/02 04:08:29;;;;;;;;;;;;;;;23.02;49.96;100008.00;2060218;28;20592;-47
2022/07/02 04:09:29;;;;;;;;;;;;;;;23.03;49.93;100015.22;2061284;28;20295;-46
2022/07/02 04:10:30;;;;;;;;;;;;;;;23.03;50.05;100017.97;2060687;28;19995;-47
2022/07/02 04:11:30;;;;;;;;;;;;;;;23.02;50.08;100016.25;2061799;28;19917;-46
2022/07/02 04:12:31;;;;;;;;;;;;;;;23.03;49.95;100017.97;2061049;28;19924;-46
2022/07/02 04:13:31;;;;;;;;;;;;;;;23.02;49.93;100010.75;2061494;28;20323;-46
2022/07/02 04:14:32;;;;;;;;;;;;;;;23.03;49.97;100014.38;2060774;28;19929;-48
2022/07/02 04:15:32;;;;;;;;;;;;;;;23.02;50.05;100015.38;2059351;28;19921;-45
2022/07/02 04:16:33;;;;;;;;;;;;;;;23.02;49.97;100015.38;2059907;28;20342;-48
2022/07/02 04:17:33;;;;;;;;;;;;;;;23.02;50.03;100016.25;2051849;28;20004;-47
2022/07/02 04:18:33;;;;;;;;;;;;;;;23.02;50.00;100020.88;2053850;28;19976;-45
2022/07/02 04:19:34;;;;;;;;;;;;;;;23.02;49.91;100020.88;2062024;28;20002;-46
2022/07/02 04:20:34;;;;;;;;;;;;;;;23.02;50.12;100018.13;2059574;28;19921;-45
2022/07/02 04:21:34;;;;;;;;;;;;;;;23.02;49.97;100031.88;2061786;28;20275;-47
2022/07/02 04:22:35;;;;;;;;;;;;;;;23.01;50.00;100020.03;2057157;28;20106;-46
2022/07/02 04:23:35;;;;;;;;;;;;;;;23.01;50.02;100020.03;2062381;28;20375;-46
2022/07/02 04:24:35;;;;;;;;;;;;;;;23.00;50.08;100018.31;2058864;28;20291;-47
2022/07/02 04:25:37;;;;;;;;;;;;;;;23.02;50.03;100020.88;2063059;28;19917;-45
2022/07/02 04:26:37;;;;;;;;;;;;;;;23.00;49.97;100018.31;2058383;28;20427;-46
2022/07/02 04:27:37;;;;;;;;;;;;;;;23.01;49.88;100008.19;2060641;28;20842;-46
2022/07/02 04:28:38;;;;;;;;;;;;;;;23.01;50.03;100016.44;2060320;28;19964;-44
2022/07/02 04:29:38;;;;;;;;;;;;;;;23.01;49.96;100014.53;2059827;28;19909;-46
2022/07/02 04:30:38;;;;;;;;;;;;;;;23.01;49.97;100009.03;2061241;28;19936;-46
2022/07/02 04:31:38;;;;;;;;;;;;;;;23.01;49.96;100019.19;2061493;28;19917;-47
2022/07/02 04:32:39;;;;;;;;;;;;;;;23.00;49.91;100018.31;2061609;28;19922;-45
2022/07/02 04:33:39;;;;;;;;;;;;;;;23.01;50.07;100017.28;2060288;28;19917;-46
2022/07/02 04:34:39;;;;;;;;;;;;;;;23.00;50.06;100023.81;2059609;28;19919;-45
2022/07/02 04:35:40;;;;;;;;;;;;;;;23.00;50.14;100020.19;2059744;28;19914;-45
2022/07/02 04:36:40;;;;;;;;;;;;;;;22.99;50.00;100019.34;2060560;28;20300;-46
2022/07/02 04:37:40;;;;;;;;;;;;;;;23.01;50.12;100021.94;2060773;28;20324;-46
2022/07/02 04:38:40;;;;;;;;;;;;;;;23.00;50.11;100018.31;2061052;28;19933;-46
2022/07/02 04:39:41;;;;;;;;;;;;;;;23.00;50.10;100021.06;2061148;28;19925;-46
2022/07/02 04:40:41;;;;;;;;;;;;;;;23.01;50.02;100020.03;2054799;28;20627;-45
2022/07/02 04:41:41;;;;;;;;;;;;;;;23.00;50.12;100023.81;2060990;28;20330;-45
2022/07/02 04:42:41;;;;;;;;;;;;;;;22.99;50.09;100019.34;2067381;28;20368;-45
2022/07/02 04:43:42;;;;;;;;;;;;;;;22.99;50.07;100018.50;2060436;28;19975;-49
2022/07/02 04:44:42;;;;;;;;;;;;;;;22.99;50.20;100016.59;2061465;28;19918;-45
2022/07/02 04:45:42;;;;;;;;;;;;;;;22.99;50.12;100015.75;2060801;28;20035;-46
2022/07/02 04:46:43;;;;;;;;;;;;;;;22.99;50.17;100016.59;2057865;28;20020;-45
2022/07/02 04:47:43;;;;;;;;;;;;;;;22.98;50.01;100014.91;2055286;28;20181;-45
2022/07/02 04:48:44;;;;;;;;;;;;;;;22.98;50.27;100020.41;2056472;28;20036;-46
2022/07/02 04:49:44;;;;;;;;;;;;;;;22.98;50.23;100014.91;2059048;28;19910;-46
2022/07/02 04:50:44;;;;;;;;;;;;;;;22.98;50.14;100020.41;2054692;28;19985;-47
2022/07/02 04:51:44;;;;;;;;;;;;;;;22.98;50.08;100014.00;2058769;28;20431;-46
2022/07/02 04:52:48;;;;;;;;;;;;;;;22.97;50.18;100018.63;2061503;28;19922;-48
2022/07/02 04:53:48;;;;;;;;;;;;;;;22.97;50.09;100013.13;2052463;28;20641;-46
2022/07/02 04:54:49;;;;;;;;;;;;;;;22.98;50.24;100014.00;2052711;28;19930;-45
2022/07/02 04:55:49;;;;;;;;;;;;;;;22.97;50.09;100015.03;2051047;28;19921;-46
2022/07/02 04:56:49;;;;;;;;;;;;;;;22.97;50.03;100021.38;2061918;28;19918;-45
2022/07/02 04:57:50;;;;;;;;;;;;;;;22.97;50.00;100015.03;2058237;28;19965;-45
2022/07/02 04:58:50;;;;;;;;;;;;;;;22.97;50.17;100024.13;2061712;28;19971;-45
2022/07/02 04:59:51;;;;;;;;;;;;;;;22.97;50.20;100020.53;2051898;28;20400;-48
2022/07/02 05:00:51;;;;;;;;;;;;;;;22.97;50.26;100024.13;2052756;28;19924;-46
2022/07/02 05:01:52;;;;;;;;;;;;;;;22.97;50.34;100029.63;2049421;28;20011;-46
2022/07/02 05:02:52;;;;;;;;;;;;;;;22.97;50.05;100021.38;2048387;28;20313;-46
2022/07/02 05:03:52;;;;;;;;;;;;;;;22.97;50.09;100026.88;2054848;28;20241;-45
2022/07/02 05:04:53;;;;;;;;;;;;;;;22.97;50.20;100028.78;2057724;28;19917;-46
2022/07/02 05:05:53;;;;;;;;;;;;;;;22.98;50.12;100031.41;2059125;28;19940;-46
2022/07/02 05:06:53;;;;;;;;;;;;;;;22.97;50.06;100029.63;2056262;28;19918;-46
2022/07/02 05:07:54;;;;;;;;;;;;;;;22.96;50.10;100027.94;2059682;28;20012;-46
2022/07/02 05:08:54;;;;;;;;;;;;;;;22.98;50.26;100030.50;2061022;28;19968;-46
2022/07/02 05:09:54;;;;;;;;;;;;;;;22.98;50.25;100033.25;2064878;28;19917;-46
2022/07/02 05:10:55;;;;;;;;;;;;;;;22.98;50.14;100033.25;2058824;28;19940;-45
2022/07/02 05:11:56;;;;;;;;;;;;;;;22.97;50.17;100029.63;2059284;28;19928;-47
2022/07/02 05:12:56;;;;;;;;;;;;;;;22.97;50.17;100028.78;2061514;28;20383;-45
2022/07/02 05:13:56;;;;;;;;;;;;;;;22.96;50.20;100030.69;2060900;28;20653;-45
2022/07/02 05:14:57;;;;;;;;;;;;;;;22.96;50.20;100033.44;2059974;28;19928;-45
2022/07/02 05:15:57;;;;;;;;;;;;;;;22.96;50.13;100038.91;2057698;28;19949;-47